sensor_id;sensor_type;location;lat;lon;timestamp;pressure;altitude;pressure_sealevel;temperature;humidity
55171;BME280;41060;47.510;8.680;2023-03-16T00:00:20;97385.78;;;7.23;40.34
55171;BME280;41060;47.510;8.680;2023-03-16T00:02:47;97386.72;;;7.22;40.07
55171;BME280;41060;47.510;8.680;2023-03-16T00:05:14;97347.97;;;6.96;39.86
55171;BME280;41060;47.510;8.680;2023-03-16T00:07:42;97379.09;;;7.17;39.78
55171;BME280;41060;47.510;8.680;2023-03-16T00:10:10;97362.94;;;7.09;39.55
55171;BME280;41060;47.510;8.680;2023-03-16T00:12:38;97377.22;;;7.19;39.90
55171;BME280;41060;47.510;8.680;2023-03-16T00:15:08;97377.78;;;7.24;39.84
55171;BME280;41060;47.510;8.680;2023-03-16T00:17:35;97394.59;;;7.22;39.90
55171;BME280;41060;47.510;8.680;2023-03-16T00:20:02;97385.97;;;7.20;39.98
55171;BME280;41060;47.510;8.680;2023-03-16T00:22:32;97368.47;;;7.05;40.26
55171;BME280;41060;47.510;8.680;2023-03-16T00:25:00;97379.94;;;7.18;40.19
55171;BME280;41060;47.510;8.680;2023-03-16T00:27:27;97369.50;;;7.02;40.21
55171;BME280;41060;47.510;8.680;2023-03-16T00:29:54;97379.09;;;7.03;40.47
55171;BME280;41060;47.510;8.680;2023-03-16T00:32:23;97382.59;;;7.04;40.57
55171;BME280;41060;47.510;8.680;2023-03-16T00:34:49;97346.38;;;6.79;40.90
55171;BME280;41060;47.510;8.680;2023-03-16T00:37:21;97375.25;;;6.95;40.79
55171;BME280;41060;47.510;8.680;2023-03-16T00:39:48;97372.69;;;6.93;40.83
55171;BME280;41060;47.510;8.680;2023-03-16T00:42:18;97379.56;;;6.96;40.66
55171;BME280;41060;47.510;8.680;2023-03-16T00:44:46;97376.09;;;6.95;40.74
55171;BME280;41060;47.510;8.680;2023-03-16T00:47:12;97181.56;;;5.77;40.66
55171;BME280;41060;47.510;8.680;2023-03-16T00:49:42;97371.75;;;6.94;40.75
55171;BME280;41060;47.510;8.680;2023-03-16T00:52:12;97298.13;;;6.50;40.82
55171;BME280;41060;47.510;8.680;2023-03-16T00:54:39;97366.03;;;6.88;40.95
55171;BME280;41060;47.510;8.680;2023-03-16T00:57:07;97349.19;;;6.76;40.63
55171;BME280;41060;47.510;8.680;2023-03-16T00:59:36;97331.59;;;6.62;41.08
55171;BME280;41060;47.510;8.680;2023-03-16T01:02:03;97356.72;;;6.82;40.86
55171;BME280;41060;47.510;8.680;2023-03-16T01:04:30;97323.91;;;6.59;41.01
55171;BME280;41060;47.510;8.680;2023-03-16T01:07:01;97346.47;;;6.77;40.96
55171;BME280;41060;47.510;8.680;2023-03-16T01:09:28;97037.97;;;4.89;40.89
55171;BME280;41060;47.510;8.680;2023-03-16T01:11:55;97342.41;;;6.72;41.38
55171;BME280;41060;47.510;8.680;2023-03-16T01:14:22;97332.56;;;6.61;40.85
55171;BME280;41060;47.510;8.680;2023-03-16T01:16:50;97342.50;;;6.70;41.07
55171;BME280;41060;47.510;8.680;2023-03-16T01:19:16;97341.00;;;6.66;41.23
55171;BME280;41060;47.510;8.680;2023-03-16T01:21:43;97324.66;;;6.61;40.96
55171;BME280;41060;47.510;8.680;2023-03-16T01:24:12;97328.63;;;6.68;40.99
55171;BME280;41060;47.510;8.680;2023-03-16T01:26:38;97327.28;;;6.61;41.05
55171;BME280;41060;47.510;8.680;2023-03-16T01:29:06;97333.50;;;6.60;41.20
55171;BME280;41060;47.510;8.680;2023-03-16T01:31:32;97333.56;;;6.59;41.29
55171;BME280;41060;47.510;8.680;2023-03-16T01:34:00;97321.81;;;6.50;41.20
55171;BME280;41060;47.510;8.680;2023-03-16T01:36:29;97318.41;;;6.48;41.30
55171;BME280;41060;47.510;8.680;2023-03-16T01:38:57;97283.16;;;6.22;41.08
55171;BME280;41060;47.510;8.680;2023-03-16T01:41:24;97298.41;;;6.31;41.37
55171;BME280;41060;47.510;8.680;2023-03-16T01:43:51;97326.59;;;6.43;41.28
55171;BME280;41060;47.510;8.680;2023-03-16T01:46:24;97322.28;;;6.42;41.33
55171;BME280;41060;47.510;8.680;2023-03-16T01:49:02;97320.56;;;6.41;41.57
55171;BME280;41060;47.510;8.680;2023-03-16T01:51:35;97283.16;;;6.22;41.55
55171;BME280;41060;47.510;8.680;2023-03-16T01:54:05;97319.81;;;6.39;42.01
55171;BME280;41060;47.510;8.680;2023-03-16T01:56:37;97307.72;;;6.37;41.82
55171;BME280;41060;47.510;8.680;2023-03-16T01:59:09;97120.91;;;5.22;41.95
55171;BME280;41060;47.510;8.680;2023-03-16T02:01:37;97304.78;;;6.27;42.33
55171;BME280;41060;47.510;8.680;2023-03-16T02:04:12;97311.81;;;6.27;42.34
55171;BME280;41060;47.510;8.680;2023-03-16T02:06:41;97321.00;;;6.20;42.43
55171;BME280;41060;47.510;8.680;2023-03-16T02:09:09;97318.19;;;6.23;41.82
55171;BME280;41060;47.510;8.680;2023-03-16T02:11:36;97314.72;;;6.22;41.87
55171;BME280;41060;47.510;8.680;2023-03-16T02:14:07;97313.88;;;6.22;41.66
55171;BME280;41060;47.510;8.680;2023-03-16T02:16:35;97307.38;;;6.13;41.60
55171;BME280;41060;47.510;8.680;2023-03-16T02:19:02;97311.69;;;6.14;41.89
55171;BME280;41060;47.510;8.680;2023-03-16T02:21:40;97310.75;;;6.15;41.75
55171;BME280;41060;47.510;8.680;2023-03-16T02:24:10;97317.81;;;6.15;42.12
55171;BME280;41060;47.510;8.680;2023-03-16T02:26:41;97315.25;;;6.13;42.08
55171;BME280;41060;47.510;8.680;2023-03-16T02:29:17;97321.44;;;6.12;42.37
55171;BME280;41060;47.510;8.680;2023-03-16T02:31:52;97311.78;;;6.13;42.48
55171;BME280;41060;47.510;8.680;2023-03-16T02:34:20;97317.19;;;6.10;42.41
55171;BME280;41060;47.510;8.680;2023-03-16T02:36:47;97314.84;;;6.05;42.40
55171;BME280;41060;47.510;8.680;2023-03-16T02:39:17;97315.88;;;6.02;42.81
55171;BME280;41060;47.510;8.680;2023-03-16T02:41:44;97309.78;;;6.02;42.41
55171;BME280;41060;47.510;8.680;2023-03-16T02:44:17;97280.72;;;5.89;42.44
55171;BME280;41060;47.510;8.680;2023-03-16T02:46:51;97306.03;;;6.06;42.63
55171;BME280;41060;47.510;8.680;2023-03-16T02:49:22;97314.00;;;6.04;42.56
55171;BME280;41060;47.510;8.680;2023-03-16T02:51:52;97307.16;;;6.02;42.63
55171;BME280;41060;47.510;8.680;2023-03-16T02:54:18;97291.31;;;5.88;42.27
55171;BME280;41060;47.510;8.680;2023-03-16T02:56:48;97303.44;;;5.90;42.97
55171;BME280;41060;47.510;8.680;2023-03-16T02:59:16;97310.56;;;5.88;42.37
55171;BME280;41060;47.510;8.680;2023-03-16T03:01:42;97311.25;;;5.92;42.00
55171;BME280;41060;47.510;8.680;2023-03-16T03:04:10;97305.16;;;5.91;42.42
55171;BME280;41060;47.510;8.680;2023-03-16T03:06:38;97229.78;;;5.46;42.43
55171;BME280;41060;47.510;8.680;2023-03-16T03:09:06;97299.03;;;5.91;42.46
55171;BME280;41060;47.510;8.680;2023-03-16T03:11:32;97300.06;;;5.88;42.54
55171;BME280;41060;47.510;8.680;2023-03-16T03:14:00;97284.03;;;5.77;42.30
55171;BME280;41060;47.510;8.680;2023-03-16T03:16:26;97293.13;;;5.87;42.33
55171;BME280;41060;47.510;8.680;2023-03-16T03:18:53;97340.69;;;5.83;41.98
55171;BME280;41060;47.510;8.680;2023-03-16T03:21:21;97298.72;;;5.81;42.49
55171;BME280;41060;47.510;8.680;2023-03-16T03:23:49;97304.06;;;5.80;42.54
55171;BME280;41060;47.510;8.680;2023-03-16T03:26:25;97300.25;;;5.85;42.39
55171;BME280;41060;47.510;8.680;2023-03-16T03:28:52;97303.97;;;5.81;42.99
55171;BME280;41060;47.510;8.680;2023-03-16T03:31:20;97293.47;;;5.81;42.39
55171;BME280;41060;47.510;8.680;2023-03-16T03:33:48;97293.63;;;5.78;42.63
55171;BME280;41060;47.510;8.680;2023-03-16T03:36:14;97285.66;;;5.80;42.81
55171;BME280;41060;47.510;8.680;2023-03-16T03:38:42;97280.50;;;5.78;43.14
55171;BME280;41060;47.510;8.680;2023-03-16T03:41:09;97287.75;;;5.73;42.93
55171;BME280;41060;47.510;8.680;2023-03-16T03:43:36;97283.47;;;5.72;43.11
55171;BME280;41060;47.510;8.680;2023-03-16T03:46:03;97293.22;;;5.70;43.15
55171;BME280;41060;47.510;8.680;2023-03-16T03:48:30;97295.16;;;5.66;43.20
55171;BME280;41060;47.510;8.680;2023-03-16T03:51:00;97286.53;;;5.64;43.28
55171;BME280;41060;47.510;8.680;2023-03-16T03:53:26;97284.22;;;5.58;43.97
55171;BME280;41060;47.510;8.680;2023-03-16T03:55:55;97288.63;;;5.58;43.77
55171;BME280;41060;47.510;8.680;2023-03-16T03:58:21;97287.63;;;5.60;43.44
55171;BME280;41060;47.510;8.680;2023-03-16T04:00:48;97285.78;;;5.62;43.61
55171;BME280;41060;47.510;8.680;2023-03-16T04:03:15;97276.19;;;5.61;43.90
55171;BME280;41060;47.510;8.680;2023-03-16T04:05:44;97244.03;;;5.42;43.78
55171;BME280;41060;47.510;8.680;2023-03-16T04:08:11;97270.44;;;5.55;43.61
55171;BME280;41060;47.510;8.680;2023-03-16T04:10:38;97275.50;;;5.58;43.46
55171;BME280;41060;47.510;8.680;2023-03-16T04:13:07;97278.25;;;5.56;43.99
55171;BME280;41060;47.510;8.680;2023-03-16T04:15:36;97208.41;;;4.91;44.41
55171;BME280;41060;47.510;8.680;2023-03-16T04:18:04;97271.72;;;5.48;44.36
55171;BME280;41060;47.510;8.680;2023-03-16T04:20:30;97277.06;;;5.46;44.27
55171;BME280;41060;47.510;8.680;2023-03-16T04:22:57;97278.06;;;5.44;44.38
55171;BME280;41060;47.510;8.680;2023-03-16T04:25:25;97275.38;;;5.45;44.24
55171;BME280;41060;47.510;8.680;2023-03-16T04:27:52;97271.97;;;5.43;44.47
55171;BME280;41060;47.510;8.680;2023-03-16T04:30:21;97272.81;;;5.44;44.31
55171;BME280;41060;47.510;8.680;2023-03-16T04:32:49;97273.94;;;5.40;44.38
55171;BME280;41060;47.510;8.680;2023-03-16T04:35:18;97266.06;;;5.40;44.00
55171;BME280;41060;47.510;8.680;2023-03-16T04:38:09;97273.25;;;5.36;44.24
55171;BME280;41060;47.510;8.680;2023-03-16T04:40:40;97261.81;;;5.37;43.88
55171;BME280;41060;47.510;8.680;2023-03-16T04:43:09;97270.53;;;5.38;44.05
55171;BME280;41060;47.510;8.680;2023-03-16T04:45:38;97269.97;;;5.33;44.23
55171;BME280;41060;47.510;8.680;2023-03-16T04:48:06;97260.91;;;5.22;44.57
55171;BME280;41060;47.510;8.680;2023-03-16T04:50:33;97264.22;;;5.10;45.03
55171;BME280;41060;47.510;8.680;2023-03-16T04:53:00;97263.69;;;4.88;45.17
55171;BME280;41060;47.510;8.680;2023-03-16T04:55:30;97262.25;;;4.82;45.38
55171;BME280;41060;47.510;8.680;2023-03-16T04:57:56;97252.34;;;4.87;45.67
55171;BME280;41060;47.510;8.680;2023-03-16T05:00:24;97254.13;;;4.87;45.67
55171;BME280;41060;47.510;8.680;2023-03-16T05:02:50;97254.06;;;4.88;44.74
55171;BME280;41060;47.510;8.680;2023-03-16T05:05:17;97256.59;;;4.90;45.42
55171;BME280;41060;47.510;8.680;2023-03-16T05:07:44;97254.63;;;4.94;44.75
55171;BME280;41060;47.510;8.680;2023-03-16T05:10:12;97175.81;;;4.32;44.26
55171;BME280;41060;47.510;8.680;2023-03-16T05:12:41;97247.53;;;4.96;44.62
55171;BME280;41060;47.510;8.680;2023-03-16T05:15:09;97251.50;;;5.03;44.59
55171;BME280;41060;47.510;8.680;2023-03-16T05:17:36;97237.88;;;4.80;45.04
55171;BME280;41060;47.510;8.680;2023-03-16T05:20:03;97250.47;;;4.74;45.55
55171;BME280;41060;47.510;8.680;2023-03-16T05:22:43;97250.56;;;4.72;45.24
55171;BME280;41060;47.510;8.680;2023-03-16T05:25:10;97251.50;;;4.71;44.76
55171;BME280;41060;47.510;8.680;2023-03-16T05:27:41;97250.84;;;4.83;45.06
55171;BME280;41060;47.510;8.680;2023-03-16T05:30:13;97249.66;;;5.05;45.42
55171;BME280;41060;47.510;8.680;2023-03-16T05:32:41;97248.03;;;5.18;46.01
55171;BME280;41060;47.510;8.680;2023-03-16T05:35:10;97238.63;;;5.29;45.98
55171;BME280;41060;47.510;8.680;2023-03-16T05:37:38;97249.28;;;5.42;45.77
55171;BME280;41060;47.510;8.680;2023-03-16T05:40:06;97255.53;;;5.55;44.67
55171;BME280;41060;47.510;8.680;2023-03-16T05:42:43;97247.25;;;5.47;44.00
55171;BME280;41060;47.510;8.680;2023-03-16T05:45:11;97226.69;;;5.24;44.26
55171;BME280;41060;47.510;8.680;2023-03-16T05:47:38;97226.13;;;5.19;44.49
55171;BME280;41060;47.510;8.680;2023-03-16T05:50:05;97204.63;;;4.97;44.63
55171;BME280;41060;47.510;8.680;2023-03-16T05:52:33;97244.84;;;5.13;45.14
55171;BME280;41060;47.510;8.680;2023-03-16T05:55:01;97233.16;;;5.03;44.83
55171;BME280;41060;47.510;8.680;2023-03-16T05:57:27;97233.06;;;4.88;46.01
55171;BME280;41060;47.510;8.680;2023-03-16T05:59:56;97238.03;;;4.77;46.02
55171;BME280;41060;47.510;8.680;2023-03-16T06:02:22;97203.22;;;4.42;46.56
55171;BME280;41060;47.510;8.680;2023-03-16T06:04:50;97230.25;;;4.60;45.59
55171;BME280;41060;47.510;8.680;2023-03-16T06:07:17;97169.91;;;4.29;45.80
55171;BME280;41060;47.510;8.680;2023-03-16T06:09:43;97228.66;;;4.73;45.56
55171;BME280;41060;47.510;8.680;2023-03-16T06:12:10;97240.75;;;4.76;45.61
55171;BME280;41060;47.510;8.680;2023-03-16T06:14:38;97090.97;;;3.86;46.18
55171;BME280;41060;47.510;8.680;2023-03-16T06:17:07;97243.28;;;4.77;46.61
55171;BME280;41060;47.510;8.680;2023-03-16T06:19:33;97254.38;;;4.82;46.04
55171;BME280;41060;47.510;8.680;2023-03-16T06:22:00;97253.34;;;4.85;46.33
55171;BME280;41060;47.510;8.680;2023-03-16T06:24:27;97251.56;;;4.70;46.67
55171;BME280;41060;47.510;8.680;2023-03-16T06:26:53;97221.50;;;4.44;47.34
55171;BME280;41060;47.510;8.680;2023-03-16T06:29:21;97258.66;;;4.52;47.22
55171;BME280;41060;47.510;8.680;2023-03-16T06:31:47;97263.78;;;4.38;47.52
55171;BME280;41060;47.510;8.680;2023-03-16T06:34:16;97261.78;;;4.26;48.48
55171;BME280;41060;47.510;8.680;2023-03-16T06:36:44;97270.03;;;4.18;48.54
55171;BME280;41060;47.510;8.680;2023-03-16T06:39:11;97268.97;;;4.22;48.16
55171;BME280;41060;47.510;8.680;2023-03-16T06:41:39;97271.28;;;4.28;48.04
55171;BME280;41060;47.510;8.680;2023-03-16T06:44:07;97265.31;;;4.42;48.07
55171;BME280;41060;47.510;8.680;2023-03-16T06:46:34;97272.81;;;4.65;47.24
55171;BME280;41060;47.510;8.680;2023-03-16T06:49:00;97265.97;;;4.78;46.51
55171;BME280;41060;47.510;8.680;2023-03-16T06:51:30;97254.38;;;4.82;46.29
55171;BME280;41060;47.510;8.680;2023-03-16T06:53:57;97271.66;;;4.86;46.95
55171;BME280;41060;47.510;8.680;2023-03-16T06:56:23;97275.63;;;4.94;46.33
55171;BME280;41060;47.510;8.680;2023-03-16T06:58:52;97276.56;;;5.08;46.10
55171;BME280;41060;47.510;8.680;2023-03-16T07:01:19;97277.41;;;5.24;45.92
55171;BME280;41060;47.510;8.680;2023-03-16T07:03:47;97280.88;;;5.41;45.68
55171;BME280;41060;47.510;8.680;2023-03-16T07:06:14;97283.31;;;5.59;45.36
55171;BME280;41060;47.510;8.680;2023-03-16T07:08:42;97282.03;;;5.66;44.55
55171;BME280;41060;47.510;8.680;2023-03-16T07:11:08;97257.03;;;5.59;44.73
55171;BME280;41060;47.510;8.680;2023-03-16T07:13:35;97289.22;;;5.79;45.58
55171;BME280;41060;47.510;8.680;2023-03-16T07:16:02;97265.28;;;5.53;45.46
55171;BME280;41060;47.510;8.680;2023-03-16T07:18:29;97294.47;;;5.79;45.55
55171;BME280;41060;47.510;8.680;2023-03-16T07:20:56;97265.28;;;5.53;45.74
55171;BME280;41060;47.510;8.680;2023-03-16T07:23:23;97292.53;;;5.66;46.23
55171;BME280;41060;47.510;8.680;2023-03-16T07:25:51;97287.53;;;5.78;45.50
55171;BME280;41060;47.510;8.680;2023-03-16T07:28:19;97115.78;;;4.75;45.55
55171;BME280;41060;47.510;8.680;2023-03-16T07:30:46;97295.84;;;5.86;45.63
55171;BME280;41060;47.510;8.680;2023-03-16T07:33:13;97292.38;;;5.54;46.26
55171;BME280;41060;47.510;8.680;2023-03-16T07:35:40;97257.91;;;5.28;46.68
55171;BME280;41060;47.510;8.680;2023-03-16T07:38:06;97301.94;;;5.71;46.57
55171;BME280;41060;47.510;8.680;2023-03-16T07:40:35;97300.47;;;5.96;45.64
55171;BME280;41060;47.510;8.680;2023-03-16T07:43:03;97299.13;;;6.19;45.36
55171;BME280;41060;47.510;8.680;2023-03-16T07:45:30;97278.63;;;6.10;45.57
55171;BME280;41060;47.510;8.680;2023-03-16T07:47:57;97298.81;;;6.10;46.31
55171;BME280;41060;47.510;8.680;2023-03-16T07:50:24;97301.13;;;6.30;46.10
55171;BME280;41060;47.510;8.680;2023-03-16T07:52:52;97247.47;;;6.18;46.20
55171;BME280;41060;47.510;8.680;2023-03-16T07:55:19;97291.47;;;6.59;45.79
55171;BME280;41060;47.510;8.680;2023-03-16T07:57:46;97303.97;;;6.69;45.56
55171;BME280;41060;47.510;8.680;2023-03-16T08:00:15;97325.47;;;6.62;45.98
55171;BME280;41060;47.510;8.680;2023-03-16T08:02:44;97308.69;;;6.78;45.21
55171;BME280;41060;47.510;8.680;2023-03-16T08:05:15;97240.56;;;6.31;45.33
55171;BME280;41060;47.510;8.680;2023-03-16T08:07:41;97285.53;;;6.41;46.05
55171;BME280;41060;47.510;8.680;2023-03-16T08:10:09;97290.53;;;6.45;46.00
55171;BME280;41060;47.510;8.680;2023-03-16T08:12:36;97280.00;;;6.31;46.93
55171;BME280;41060;47.510;8.680;2023-03-16T08:15:04;97277.38;;;6.31;46.55
55171;BME280;41060;47.510;8.680;2023-03-16T08:17:32;97276.72;;;6.42;47.34
55171;BME280;41060;47.510;8.680;2023-03-16T08:19:59;97280.97;;;6.59;47.21
55171;BME280;41060;47.510;8.680;2023-03-16T08:22:26;97255.56;;;6.43;46.64
55171;BME280;41060;47.510;8.680;2023-03-16T08:24:52;97269.59;;;6.72;46.91
55171;BME280;41060;47.510;8.680;2023-03-16T08:27:19;97266.19;;;6.84;49.90
55171;BME280;41060;47.510;8.680;2023-03-16T08:29:50;97225.41;;;6.77;45.77
55171;BME280;41060;47.510;8.680;2023-03-16T08:32:17;97260.94;;;7.26;44.87
55171;BME280;41060;47.510;8.680;2023-03-16T08:34:46;97244.28;;;6.84;44.79
55171;BME280;41060;47.510;8.680;2023-03-16T08:37:13;97213.34;;;6.88;44.83
55171;BME280;41060;47.510;8.680;2023-03-16T08:39:40;97233.38;;;7.31;45.47
55171;BME280;41060;47.510;8.680;2023-03-16T08:42:08;97241.97;;;7.74;43.96
55171;BME280;41060;47.510;8.680;2023-03-16T08:44:35;97231.28;;;8.02;43.25
55171;BME280;41060;47.510;8.680;2023-03-16T08:47:05;97172.09;;;7.81;43.33
55171;BME280;41060;47.510;8.680;2023-03-16T08:49:33;97226.94;;;7.89;44.24
55171;BME280;41060;47.510;8.680;2023-03-16T08:52:01;97215.03;;;7.96;43.39
55171;BME280;41060;47.510;8.680;2023-03-16T08:54:27;97225.59;;;8.34;42.10
55171;BME280;41060;47.510;8.680;2023-03-16T08:56:55;97235.41;;;8.57;42.35
55171;BME280;41060;47.510;8.680;2023-03-16T08:59:22;97173.47;;;8.12;42.60
55171;BME280;41060;47.510;8.680;2023-03-16T09:01:48;97241.75;;;8.17;43.73
55171;BME280;41060;47.510;8.680;2023-03-16T09:04:16;97237.19;;;7.93;44.61
55171;BME280;41060;47.510;8.680;2023-03-16T09:06:42;97235.25;;;7.83;44.11
55171;BME280;41060;47.510;8.680;2023-03-16T09:09:10;97239.09;;;7.65;45.20
55171;BME280;41060;47.510;8.680;2023-03-16T09:11:37;97235.06;;;7.98;44.76
55171;BME280;41060;47.510;8.680;2023-03-16T09:14:04;97232.69;;;8.08;42.73
55171;BME280;41060;47.510;8.680;2023-03-16T09:16:31;97230.38;;;8.29;42.67
55171;BME280;41060;47.510;8.680;2023-03-16T09:18:58;97233.41;;;8.35;42.25
55171;BME280;41060;47.510;8.680;2023-03-16T09:21:25;97225.50;;;8.23;43.01
55171;BME280;41060;47.510;8.680;2023-03-16T09:23:53;97237.00;;;8.34;43.41
55171;BME280;41060;47.510;8.680;2023-03-16T09:26:22;97234.16;;;8.50;43.19
55171;BME280;41060;47.510;8.680;2023-03-16T09:28:49;97205.13;;;8.12;42.40
55171;BME280;41060;47.510;8.680;2023-03-16T09:31:18;97242.38;;;8.71;40.88
55171;BME280;41060;47.510;8.680;2023-03-16T09:33:46;97230.69;;;9.11;40.89
55171;BME280;41060;47.510;8.680;2023-03-16T09:36:13;97222.09;;;9.57;39.87
55171;BME280;41060;47.510;8.680;2023-03-16T09:38:39;97215.66;;;9.72;40.08
55171;BME280;41060;47.510;8.680;2023-03-16T09:41:08;97206.81;;;9.95;39.31
55171;BME280;41060;47.510;8.680;2023-03-16T09:43:51;97202.00;;;10.24;38.13
55171;BME280;41060;47.510;8.680;2023-03-16T09:46:25;97215.81;;;10.17;38.37
55171;BME280;41060;47.510;8.680;2023-03-16T09:48:53;97176.81;;;10.19;38.67
55171;BME280;41060;47.510;8.680;2023-03-16T09:51:37;97204.91;;;9.98;39.64
55171;BME280;41060;47.510;8.680;2023-03-16T09:54:11;97167.09;;;9.73;39.99
55171;BME280;41060;47.510;8.680;2023-03-16T09:56:42;97208.72;;;10.28;39.17
55171;BME280;41060;47.510;8.680;2023-03-16T09:59:14;97165.53;;;10.28;39.12
55171;BME280;41060;47.510;8.680;2023-03-16T10:01:52;97202.25;;;10.44;38.03
55171;BME280;41060;47.510;8.680;2023-03-16T10:04:38;97206.09;;;10.62;37.93
55171;BME280;41060;47.510;8.680;2023-03-16T10:07:18;97203.97;;;10.67;37.00
55171;BME280;41060;47.510;8.680;2023-03-16T10:09:51;97204.69;;;10.69;36.70
55171;BME280;41060;47.510;8.680;2023-03-16T10:12:24;97185.78;;;10.85;35.72
55171;BME280;41060;47.510;8.680;2023-03-16T10:14:57;97198.75;;;11.10;35.51
55171;BME280;41060;47.510;8.680;2023-03-16T10:17:32;97124.28;;;10.37;35.73
55171;BME280;41060;47.510;8.680;2023-03-16T10:20:04;97188.91;;;10.79;35.62
55171;BME280;41060;47.510;8.680;2023-03-16T10:22:36;97175.69;;;10.67;35.31
55171;BME280;41060;47.510;8.680;2023-03-16T10:25:06;97173.13;;;10.55;35.50
55171;BME280;41060;47.510;8.680;2023-03-16T10:27:39;97180.25;;;10.65;35.21
55171;BME280;41060;47.510;8.680;2023-03-16T10:30:20;97175.97;;;11.19;34.37
55171;BME280;41060;47.510;8.680;2023-03-16T10:32:50;97136.25;;;11.07;33.88
55171;BME280;41060;47.510;8.680;2023-03-16T10:35:39;97165.59;;;11.59;33.10
55171;BME280;41060;47.510;8.680;2023-03-16T10:38:08;97161.09;;;11.38;31.50
55171;BME280;41060;47.510;8.680;2023-03-16T10:40:35;97157.94;;;11.44;32.17
55171;BME280;41060;47.510;8.680;2023-03-16T10:43:06;97169.13;;;11.48;30.74
55171;BME280;41060;47.510;8.680;2023-03-16T10:45:36;97168.38;;;11.57;31.36
55171;BME280;41060;47.510;8.680;2023-03-16T10:48:07;97161.94;;;11.71;32.76
55171;BME280;41060;47.510;8.680;2023-03-16T10:50:34;97149.63;;;12.02;31.84
55171;BME280;41060;47.510;8.680;2023-03-16T10:53:02;97148.75;;;12.22;31.97
55171;BME280;41060;47.510;8.680;2023-03-16T10:55:30;97138.16;;;12.01;32.22
55171;BME280;41060;47.510;8.680;2023-03-16T10:57:59;97138.91;;;11.71;32.76
55171;BME280;41060;47.510;8.680;2023-03-16T11:00:28;97139.56;;;12.05;32.31
55171;BME280;41060;47.510;8.680;2023-03-16T11:02:58;97133.38;;;12.46;33.50
55171;BME280;41060;47.510;8.680;2023-03-16T11:05:29;97125.69;;;12.93;32.32
55171;BME280;41060;47.510;8.680;2023-03-16T11:08:11;97083.13;;;12.74;32.22
55171;BME280;41060;47.510;8.680;2023-03-16T11:10:40;97116.13;;;13.30;32.42
55171;BME280;41060;47.510;8.680;2023-03-16T11:13:11;97118.94;;;13.77;31.74
55171;BME280;41060;47.510;8.680;2023-03-16T11:15:44;97024.56;;;13.52;30.84
55171;BME280;41060;47.510;8.680;2023-03-16T11:18:25;97117.66;;;13.81;31.34
55171;BME280;41060;47.510;8.680;2023-03-16T11:20:54;97115.69;;;13.73;30.94
55171;BME280;41060;47.510;8.680;2023-03-16T11:23:28;97075.03;;;12.85;32.59
55171;BME280;41060;47.510;8.680;2023-03-16T11:26:01;97129.69;;;12.78;33.00
55171;BME280;41060;47.510;8.680;2023-03-16T11:28:33;97120.84;;;13.08;31.57
55171;BME280;41060;47.510;8.680;2023-03-16T11:31:11;97126.88;;;13.10;32.20
55171;BME280;41060;47.510;8.680;2023-03-16T11:33:42;97117.16;;;12.99;31.33
55171;BME280;41060;47.510;8.680;2023-03-16T11:36:20;97122.44;;;13.39;30.94
55171;BME280;41060;47.510;8.680;2023-03-16T11:38:59;97120.47;;;13.60;30.98
55171;BME280;41060;47.510;8.680;2023-03-16T11:41:34;97116.53;;;13.74;30.63
55171;BME280;41060;47.510;8.680;2023-03-16T11:44:09;97103.34;;;13.92;29.51
55171;BME280;41060;47.510;8.680;2023-03-16T11:46:41;97100.38;;;14.24;29.87
55171;BME280;41060;47.510;8.680;2023-03-16T11:49:32;97100.22;;;14.25;29.75
55171;BME280;41060;47.510;8.680;2023-03-16T11:52:11;97103.75;;;14.06;29.14
55171;BME280;41060;47.510;8.680;2023-03-16T11:54:50;97090.72;;;14.13;29.09
55171;BME280;41060;47.510;8.680;2023-03-16T11:57:29;97090.97;;;14.10;29.59
55171;BME280;41060;47.510;8.680;2023-03-16T12:00:07;97089.31;;;14.09;30.14
55171;BME280;41060;47.510;8.680;2023-03-16T12:02:45;97053.44;;;14.23;28.42
55171;BME280;41060;47.510;8.680;2023-03-16T12:05:42;97082.50;;;14.98;29.06
55171;BME280;41060;47.510;8.680;2023-03-16T12:08:24;97055.56;;;15.37;28.23
55171;BME280;41060;47.510;8.680;2023-03-16T12:10:57;97085.66;;;15.29;28.41
55171;BME280;41060;47.510;8.680;2023-03-16T12:13:34;97078.03;;;15.16;27.76
55171;BME280;41060;47.510;8.680;2023-03-16T12:16:08;97061.19;;;15.16;28.38
55171;BME280;41060;47.510;8.680;2023-03-16T12:18:42;97069.41;;;15.05;29.15
55171;BME280;41060;47.510;8.680;2023-03-16T12:21:14;97066.66;;;14.96;27.27
55171;BME280;41060;47.510;8.680;2023-03-16T12:23:49;97059.59;;;14.50;28.69
55171;BME280;41060;47.510;8.680;2023-03-16T12:26:18;97065.84;;;15.31;28.29
55171;BME280;41060;47.510;8.680;2023-03-16T12:28:47;97051.53;;;15.94;26.23
55171;BME280;41060;47.510;8.680;2023-03-16T12:31:16;97025.34;;;16.23;26.02
55171;BME280;41060;47.510;8.680;2023-03-16T12:33:52;97054.69;;;16.91;25.77
55171;BME280;41060;47.510;8.680;2023-03-16T12:36:41;97050.94;;;17.34;25.12
55171;BME280;41060;47.510;8.680;2023-03-16T12:39:16;97046.06;;;17.21;25.49
55171;BME280;41060;47.510;8.680;2023-03-16T12:41:59;97044.03;;;17.07;24.68
55171;BME280;41060;47.510;8.680;2023-03-16T12:44:33;96887.44;;;15.54;25.52
55171;BME280;41060;47.510;8.680;2023-03-16T12:47:08;97035.19;;;16.65;25.83
55171;BME280;41060;47.510;8.680;2023-03-16T12:49:41;97048.13;;;17.36;25.72
55171;BME280;41060;47.510;8.680;2023-03-16T12:52:11;97024.69;;;17.54;24.45
55171;BME280;41060;47.510;8.680;2023-03-16T12:54:48;97004.63;;;17.34;25.56
55171;BME280;41060;47.510;8.680;2023-03-16T12:57:16;97034.03;;;17.74;24.20
55171;BME280;41060;47.510;8.680;2023-03-16T12:59:45;96990.53;;;17.80;24.39
55171;BME280;41060;47.510;8.680;2023-03-16T13:02:16;96977.78;;;18.07;24.38
55171;BME280;41060;47.510;8.680;2023-03-16T13:04:46;97020.91;;;18.28;23.72
55171;BME280;41060;47.510;8.680;2023-03-16T13:07:18;97017.97;;;18.07;24.12
55171;BME280;41060;47.510;8.680;2023-03-16T13:09:50;97030.06;;;17.94;23.82
55171;BME280;41060;47.510;8.680;2023-03-16T13:12:22;97018.44;;;18.10;23.86
55171;BME280;41060;47.510;8.680;2023-03-16T13:14:53;97008.44;;;17.80;25.17
55171;BME280;41060;47.510;8.680;2023-03-16T13:17:26;97026.34;;;17.79;24.38
55171;BME280;41060;47.510;8.680;2023-03-16T13:20:04;97017.66;;;17.85;23.25